createdAt,value
2022-08-30T00:02:11.469Z,24.30
2022-08-30T00:04:39.147Z,24.30
2022-08-30T00:07:06.135Z,24.20
2022-08-30T00:09:33.328Z,24.30
2022-08-30T00:12:00.650Z,24.30
2022-08-30T00:14:27.684Z,24.30
2022-08-30T00:16:55.451Z,24.30
2022-08-30T00:19:22.499Z,24.20
2022-08-30T00:21:49.428Z,24.20
2022-08-30T00:24:16.410Z,24.20
2022-08-30T00:26:43.380Z,24.20
2022-08-30T00:29:10.344Z,24.30
2022-08-30T00:31:37.327Z,24.30
2022-08-30T00:34:05.150Z,24.30
2022-08-30T00:36:32.110Z,24.30
2022-08-30T00:38:59.049Z,24.30
2022-08-30T00:41:26.000Z,24.30
2022-08-30T00:43:52.918Z,24.30
2022-08-30T00:46:19.961Z,24.30
2022-08-30T00:48:49.039Z,24.20
2022-08-30T00:51:17.142Z,24.20
2022-08-30T00:53:50.916Z,24.20
2022-08-30T00:56:18.236Z,24.20
2022-08-30T00:58:49.954Z,24.20
2022-08-30T01:01:17.386Z,24.20
2022-08-30T01:03:45.395Z,24.20
2022-08-30T01:06:16.898Z,24.20
2022-08-30T01:08:45.857Z,24.20
2022-08-30T01:11:16.202Z,24.20
2022-08-30T01:13:47.128Z,24.20
2022-08-30T01:16:15.209Z,24.10
2022-08-30T01:18:43.547Z,24.20
2022-08-30T01:21:21.516Z,24.20
2022-08-30T01:23:50.346Z,24.20
2022-08-30T01:26:19.796Z,24.20
2022-08-30T01:28:53.424Z,24.20
2022-08-30T01:31:20.569Z,24.20
2022-08-30T01:33:47.630Z,24.30
2022-08-30T01:36:15.449Z,24.30
2022-08-30T01:38:55.279Z,24.30
2022-08-30T01:41:29.238Z,24.30
2022-08-30T01:43:58.507Z,24.30
2022-08-30T01:46:46.672Z,24.30
2022-08-30T01:49:17.181Z,24.30
2022-08-30T01:51:46.044Z,24.30
2022-08-30T01:54:13.054Z,24.30
2022-08-30T01:56:40.347Z,24.30
2022-08-30T01:59:07.608Z,24.30
2022-08-30T02:01:37.257Z,24.30
2022-08-30T02:04:05.554Z,24.30
2022-08-30T02:06:32.942Z,24.40
2022-08-30T02:09:00.076Z,24.30
2022-08-30T02:11:27.992Z,24.30
2022-08-30T02:13:55.119Z,24.30
2022-08-30T02:16:24.027Z,24.30
2022-08-30T02:18:52.935Z,24.30
2022-08-30T02:21:20.698Z,24.20
2022-08-30T02:23:47.679Z,24.20
2022-08-30T02:26:15.965Z,24.10
2022-08-30T02:28:49.451Z,24.20
2022-08-30T02:31:20.461Z,24.10
2022-08-30T02:33:52.676Z,24.10
2022-08-30T02:36:21.171Z,24.00
2022-08-30T02:38:48.976Z,24.00
2022-08-30T02:41:17.263Z,24.00
2022-08-30T02:43:44.286Z,23.90
2022-08-30T02:46:11.440Z,23.90
2022-08-30T02:48:38.552Z,23.80
2022-08-30T02:51:09.597Z,23.80
2022-08-30T02:53:39.861Z,23.80
2022-08-30T02:56:07.309Z,23.80
2022-08-30T02:58:34.269Z,23.90
2022-08-30T03:01:01.801Z,23.90
2022-08-30T03:03:29.031Z,23.90
2022-08-30T03:05:56.000Z,23.90
2022-08-30T03:08:23.211Z,23.90
2022-08-30T03:10:50.602Z,23.90
2022-08-30T03:13:17.717Z,23.90
2022-08-30T03:15:44.780Z,23.90
2022-08-30T03:18:11.726Z,24.00
2022-08-30T03:20:39.459Z,24.10
2022-08-30T03:23:07.548Z,24.10
2022-08-30T03:25:34.624Z,23.90
2022-08-30T03:28:01.721Z,23.70
2022-08-30T03:30:29.219Z,23.60
2022-08-30T03:32:56.173Z,23.50
2022-08-30T03:35:23.321Z,23.40
2022-08-30T03:37:56.417Z,23.40
2022-08-30T03:40:23.669Z,23.40
2022-08-30T03:42:50.815Z,23.40
2022-08-30T03:45:18.938Z,23.40
2022-08-30T03:47:46.175Z,23.40
2022-08-30T03:50:14.236Z,23.30
2022-08-30T03:52:41.623Z,23.40
2022-08-30T03:55:09.102Z,23.30
2022-08-30T03:57:36.613Z,23.30
2022-08-30T04:00:05.291Z,23.30
2022-08-30T04:02:38.701Z,23.30
2022-08-30T04:05:06.559Z,23.30
2022-08-30T04:07:33.549Z,23.30
2022-08-30T04:10:00.871Z,23.30
2022-08-30T04:12:28.134Z,23.20
2022-08-30T04:14:55.115Z,23.20
2022-08-30T04:17:22.123Z,23.10
2022-08-30T04:19:49.108Z,22.90
2022-08-30T04:22:16.220Z,22.90
2022-08-30T04:24:43.228Z,22.80
2022-08-30T04:27:10.609Z,22.80
2022-08-30T04:29:37.612Z,22.70
2022-08-30T04:32:05.053Z,22.70
2022-08-30T04:34:32.068Z,22.60
2022-08-30T04:36:59.067Z,22.60
2022-08-30T04:39:26.015Z,22.60
2022-08-30T04:41:52.947Z,22.60
2022-08-30T04:44:19.955Z,22.50
2022-08-30T04:46:47.487Z,22.50
2022-08-30T04:49:14.826Z,22.50
2022-08-30T04:51:41.954Z,22.50
2022-08-30T04:54:08.941Z,22.50
2022-08-30T04:56:35.955Z,22.40
2022-08-30T04:59:03.752Z,22.50
2022-08-30T05:01:32.245Z,22.40
2022-08-30T05:04:11.661Z,22.40
2022-08-30T05:06:38.618Z,22.40
2022-08-30T05:09:05.664Z,22.40
2022-08-30T05:11:33.039Z,22.40
2022-08-30T05:14:00.003Z,22.40
2022-08-30T05:16:27.374Z,22.40
2022-08-30T05:18:54.750Z,22.30
2022-08-30T05:21:27.383Z,22.30
2022-08-30T05:23:56.659Z,22.30
2022-08-30T05:26:26.382Z,22.30
2022-08-30T05:28:53.783Z,22.20
2022-08-30T05:31:24.819Z,22.20
2022-08-30T05:33:53.078Z,22.10
2022-08-30T05:36:23.687Z,22.10
2022-08-30T05:38:50.679Z,22.00
2022-08-30T05:41:20.222Z,22.00
2022-08-30T05:43:48.561Z,21.90
2022-08-30T05:46:19.936Z,21.90
2022-08-30T05:48:47.443Z,21.90
2022-08-30T05:51:21.527Z,21.90
2022-08-30T05:53:49.835Z,21.90
2022-08-30T05:56:19.993Z,21.80
2022-08-30T05:58:48.093Z,21.80
2022-08-30T06:01:27.609Z,21.80
2022-08-30T06:04:00.346Z,21.90
2022-08-30T06:06:32.338Z,21.90
2022-08-30T06:08:59.284Z,21.90
2022-08-30T06:11:26.844Z,21.90
2022-08-30T06:13:55.296Z,22.00
2022-08-30T06:16:26.251Z,22.10
2022-08-30T06:18:55.396Z,22.10
2022-08-30T06:21:28.749Z,22.40
2022-08-30T06:23:57.042Z,22.60
2022-08-30T06:26:24.811Z,22.90
2022-08-30T06:28:52.051Z,23.40
2022-08-30T06:31:20.880Z,24.20
2022-08-30T06:33:48.165Z,25.20
2022-08-30T06:36:19.178Z,26.00
2022-08-30T06:38:47.241Z,26.30
2022-08-30T06:41:18.999Z,26.40
2022-08-30T06:43:49.020Z,26.20
2022-08-30T06:46:28.577Z,26.00
2022-08-30T06:48:57.071Z,26.60
2022-08-30T06:51:34.465Z,27.50
2022-08-30T06:54:02.991Z,28.60
2022-08-30T06:56:31.157Z,29.50
2022-08-30T06:58:58.638Z,30.20
2022-08-30T07:01:27.612Z,30.90
2022-08-30T07:03:55.670Z,31.40
2022-08-30T07:06:24.325Z,31.40
2022-08-30T07:08:56.268Z,31.50
2022-08-30T07:11:28.488Z,32.00
2022-08-30T07:13:55.607Z,32.70
2022-08-30T07:16:23.241Z,33.30
2022-08-30T07:18:56.045Z,33.80
2022-08-30T07:21:35.553Z,34.20
2022-08-30T07:24:03.407Z,34.60
2022-08-30T07:26:39.384Z,34.80
2022-08-30T07:29:06.585Z,35.10
2022-08-30T07:31:36.044Z,35.20
2022-08-30T07:34:05.158Z,35.30
2022-08-30T07:36:33.501Z,35.50
2022-08-30T07:39:00.531Z,35.60
2022-08-30T07:41:31.289Z,35.60
2022-08-30T07:43:58.956Z,35.30
2022-08-30T07:46:26.348Z,35.30
2022-08-30T07:48:55.196Z,35.90
2022-08-30T07:51:25.043Z,36.60
2022-08-30T07:53:52.859Z,36.90
2022-08-30T07:56:20.931Z,37.20
2022-08-30T07:58:48.795Z,37.50
2022-08-30T08:01:17.022Z,38.00
2022-08-30T08:03:45.386Z,38.50
2022-08-30T08:06:14.759Z,38.20
2022-08-30T08:08:42.843Z,38.00
2022-08-30T08:11:16.266Z,38.10
2022-08-30T08:13:53.036Z,37.50
2022-08-30T08:16:29.871Z,37.00
2022-08-30T08:18:57.569Z,36.20
2022-08-30T08:21:25.979Z,35.30
2022-08-30T08:23:53.247Z,34.50
2022-08-30T08:26:21.624Z,33.90
2022-08-30T08:28:48.634Z,33.50
2022-08-30T08:31:33.043Z,34.20
2022-08-30T08:34:03.160Z,34.80
2022-08-30T08:36:31.402Z,34.60
2022-08-30T08:38:58.740Z,34.10
2022-08-30T08:41:40.575Z,33.50
2022-08-30T08:44:34.236Z,33.20
2022-08-30T08:47:11.161Z,33.50
2022-08-30T08:49:39.548Z,34.30
2022-08-30T08:52:48.319Z,34.30
2022-08-30T08:55:21.000Z,34.30
2022-08-30T08:57:48.273Z,34.80
2022-08-30T09:00:15.885Z,35.40
2022-08-30T09:02:55.830Z,35.80
2022-08-30T09:05:26.125Z,35.50
2022-08-30T09:08:10.116Z,35.10
2022-08-30T09:10:50.306Z,35.20
2022-08-30T09:13:19.317Z,35.90
2022-08-30T09:15:54.842Z,35.60
2022-08-30T09:18:45.672Z,35.10
2022-08-30T09:21:20.180Z,34.70
2022-08-30T09:23:50.879Z,34.70
2022-08-30T09:26:33.219Z,34.90
2022-08-30T09:29:01.072Z,35.90
2022-08-30T09:31:32.306Z,36.60
2022-08-30T09:34:03.505Z,37.00
2022-08-30T09:36:43.848Z,37.80
2022-08-30T09:39:30.684Z,38.10
2022-08-30T09:42:13.039Z,37.30
2022-08-30T09:44:40.017Z,36.50
2022-08-30T09:47:24.804Z,35.80
2022-08-30T09:50:09.340Z,35.20
2022-08-30T09:52:50.950Z,34.40
2022-08-30T09:55:41.132Z,34.40
2022-08-30T09:58:17.353Z,35.40
2022-08-30T10:00:56.928Z,36.40
2022-08-30T10:03:40.556Z,37.00
2022-08-30T10:06:45.328Z,37.40
2022-08-30T10:09:16.108Z,38.00
2022-08-30T10:11:54.930Z,38.50
2022-08-30T10:14:33.338Z,38.90
2022-08-30T10:17:09.884Z,38.90
2022-08-30T10:19:58.230Z,38.50
2022-08-30T10:22:37.677Z,37.80
2022-08-30T10:25:23.010Z,36.90
2022-08-30T10:28:03.259Z,36.40
2022-08-30T10:30:34.876Z,36.60
2022-08-30T10:33:16.883Z,37.00
2022-08-30T10:35:50.944Z,37.40
2022-08-30T10:38:29.557Z,37.70
2022-08-30T10:41:15.085Z,37.50
2022-08-30T10:43:50.985Z,37.30
2022-08-30T10:47:02.642Z,37.40
2022-08-30T10:49:34.883Z,38.10
2022-08-30T10:52:26.189Z,39.00
2022-08-30T10:54:59.644Z,39.90
2022-08-30T10:57:27.647Z,40.10
2022-08-30T11:00:06.014Z,40.60
2022-08-30T11:02:47.978Z,41.10
2022-08-30T11:05:24.177Z,41.00
2022-08-30T11:07:58.625Z,40.40
2022-08-30T11:10:50.950Z,40.20
2022-08-30T11:13:30.493Z,39.80
2022-08-30T11:16:03.578Z,39.30
2022-08-30T11:21:41.008Z,38.60
2022-08-30T11:24:11.701Z,38.60
2022-08-30T11:26:48.477Z,38.80
2022-08-30T11:29:29.805Z,39.20
2022-08-30T11:32:13.975Z,39.50
2022-08-30T11:34:48.910Z,39.60
2022-08-30T11:37:40.685Z,39.70
2022-08-30T11:40:26.266Z,40.00
2022-08-30T11:42:56.149Z,40.60
2022-08-30T11:45:25.295Z,41.00
2022-08-30T11:47:52.703Z,40.70
2022-08-30T11:50:26.433Z,40.20
2022-08-30T11:53:02.045Z,39.70
2022-08-30T11:55:49.526Z,39.30
2022-08-30T11:58:48.143Z,38.40
2022-08-30T12:01:49.832Z,37.50
2022-08-30T12:04:17.132Z,36.80
2022-08-30T12:06:49.843Z,36.50
2022-08-30T12:09:26.425Z,36.60
2022-08-30T12:12:04.747Z,36.60
2022-08-30T12:14:52.701Z,36.60
2022-08-30T12:17:43.022Z,36.80
2022-08-30T12:20:39.070Z,36.90
2022-08-30T12:23:23.751Z,37.50
2022-08-30T12:26:08.473Z,38.10
2022-08-30T12:28:38.859Z,38.30
2022-08-30T12:31:21.684Z,38.60
2022-08-30T12:33:55.532Z,38.90
2022-08-30T12:36:36.662Z,39.50
2022-08-30T12:39:30.372Z,40.50
2022-08-30T12:42:31.229Z,40.80
2022-08-30T12:45:01.913Z,40.30
2022-08-30T12:47:30.971Z,39.40
2022-08-30T12:49:58.900Z,39.00
2022-08-30T12:52:39.805Z,39.10
2022-08-30T12:55:19.390Z,39.60
2022-08-30T12:58:01.349Z,39.70
2022-08-30T13:00:46.724Z,38.90
2022-08-30T13:03:32.956Z,38.30
2022-08-30T13:06:00.125Z,37.90
2022-08-30T13:08:45.806Z,37.60
2022-08-30T13:11:29.697Z,37.60
2022-08-30T13:14:30.002Z,37.80
2022-08-30T13:17:13.794Z,37.50
2022-08-30T13:19:43.336Z,37.30
2022-08-30T13:22:29.457Z,37.70
2022-08-30T13:24:58.093Z,38.20
2022-08-30T13:27:26.225Z,38.60
2022-08-30T13:29:53.260Z,38.80
2022-08-30T13:32:20.399Z,39.20
2022-08-30T13:34:47.424Z,39.50
2022-08-30T13:40:13.469Z,39.90
2022-08-30T13:42:42.803Z,40.20
2022-08-30T13:47:59.829Z,39.60
2022-08-30T13:50:26.870Z,38.90
2022-08-30T13:52:54.474Z,38.30
2022-08-30T13:55:21.688Z,37.60
2022-08-30T13:57:57.373Z,37.20
2022-08-30T14:00:25.837Z,37.10
2022-08-30T14:02:57.192Z,37.20
2022-08-30T14:05:48.951Z,37.20
2022-08-30T14:11:07.512Z,36.60
2022-08-30T14:13:34.560Z,36.40
2022-08-30T14:18:53.388Z,36.20
2022-08-30T14:21:21.325Z,36.10
2022-08-30T14:23:52.337Z,36.20
2022-08-30T14:26:32.517Z,36.40
2022-08-30T14:29:02.179Z,36.50
2022-08-30T14:31:32.521Z,36.40
2022-08-30T14:34:04.187Z,36.50
2022-08-30T14:36:33.410Z,36.50
2022-08-30T14:39:00.753Z,36.50
2022-08-30T14:41:27.831Z,36.50
2022-08-30T14:43:54.831Z,36.40
2022-08-30T14:46:24.719Z,36.10
2022-08-30T14:48:54.041Z,36.10
2022-08-30T14:51:23.039Z,36.00
2022-08-30T14:53:54.604Z,35.80
2022-08-30T14:56:23.390Z,35.70
2022-08-30T14:58:53.810Z,35.50
2022-08-30T15:01:22.667Z,35.20
2022-08-30T15:03:49.739Z,34.80
2022-08-30T15:06:18.646Z,34.50
2022-08-30T15:08:48.346Z,34.50
2022-08-30T15:11:18.781Z,34.60
2022-08-30T15:13:46.789Z,34.50
2022-08-30T15:16:17.753Z,34.30
2022-08-30T15:18:44.934Z,34.20
2022-08-30T15:21:11.995Z,33.90
2022-08-30T15:23:39.485Z,33.80
2022-08-30T15:26:08.144Z,33.70
2022-08-30T15:28:36.753Z,33.70
2022-08-30T15:31:08.527Z,33.70
2022-08-30T15:33:37.526Z,33.60
2022-08-30T15:36:05.913Z,33.40
2022-08-30T15:38:33.403Z,33.30
2022-08-30T15:41:04.158Z,33.20
2022-08-30T15:43:31.699Z,33.20
2022-08-30T15:46:20.128Z,33.00
2022-08-30T15:48:47.539Z,32.50
2022-08-30T15:51:16.784Z,32.20
2022-08-30T15:53:45.287Z,32.00
2022-08-30T15:56:12.356Z,31.80
2022-08-30T15:58:40.664Z,31.60
2022-08-30T16:01:09.000Z,31.50
2022-08-30T16:03:37.839Z,31.30
2022-08-30T16:06:13.932Z,31.20
2022-08-30T16:08:41.573Z,31.00
2022-08-30T16:11:10.408Z,30.70
2022-08-30T16:13:37.797Z,30.60
2022-08-30T16:16:07.214Z,30.50
2022-08-30T16:18:35.856Z,30.50
2022-08-30T16:21:14.967Z,30.50
2022-08-30T16:23:44.080Z,30.60
2022-08-30T16:26:15.697Z,30.60
2022-08-30T16:28:45.752Z,30.60
2022-08-30T16:31:13.739Z,30.60
2022-08-30T16:33:43.830Z,30.60
2022-08-30T16:36:12.584Z,30.50
2022-08-30T16:38:40.725Z,30.60
2022-08-30T16:41:11.223Z,30.60
2022-08-30T16:43:40.102Z,30.50
2022-08-30T16:46:10.039Z,30.40
2022-08-30T16:48:39.413Z,30.30
2022-08-30T16:51:10.390Z,30.10
2022-08-30T16:53:38.292Z,30.00
2022-08-30T16:56:11.995Z,29.90
2022-08-30T16:58:39.043Z,29.90
2022-08-30T17:01:06.789Z,29.70
2022-08-30T17:03:34.166Z,29.60
2022-08-30T17:06:01.480Z,29.50
2022-08-30T17:08:31.006Z,29.50
2022-08-30T17:10:58.843Z,29.30
2022-08-30T17:13:26.038Z,29.20
2022-08-30T17:15:53.197Z,29.10
2022-08-30T17:18:20.274Z,29.00
2022-08-30T17:20:47.442Z,28.80
2022-08-30T17:23:14.932Z,28.60
2022-08-30T17:25:43.267Z,28.50
2022-08-30T17:28:11.067Z,28.40
2022-08-30T17:30:38.215Z,28.30
2022-08-30T17:33:06.517Z,28.20
2022-08-30T17:35:33.475Z,28.20
2022-08-30T17:38:00.631Z,28.10
2022-08-30T17:40:28.562Z,28.00
2022-08-30T17:42:55.593Z,27.90
2022-08-30T17:45:23.067Z,27.80
2022-08-30T17:47:50.765Z,27.80
2022-08-30T17:50:19.534Z,27.70
2022-08-30T17:52:47.208Z,27.70
2022-08-30T17:55:14.675Z,27.50
2022-08-30T17:57:41.883Z,27.20
2022-08-30T18:00:15.668Z,27.00
2022-08-30T18:02:43.140Z,26.90
2022-08-30T18:05:10.390Z,26.70
2022-08-30T18:07:37.737Z,26.60
2022-08-30T18:10:05.588Z,26.50
2022-08-30T18:12:33.679Z,26.40
2022-08-30T18:15:01.081Z,26.40
2022-08-30T18:17:29.386Z,26.30
2022-08-30T18:19:57.951Z,26.10
2022-08-30T18:22:25.117Z,26.00
2022-08-30T18:24:52.308Z,25.90
2022-08-30T18:27:19.462Z,25.80
2022-08-30T18:29:46.703Z,25.80
2022-08-30T18:32:13.696Z,25.70
2022-08-30T18:34:42.703Z,25.70
2022-08-30T18:37:11.653Z,25.70
2022-08-30T18:39:39.898Z,25.60
2022-08-30T18:42:08.552Z,25.60
2022-08-30T18:44:37.311Z,25.60
2022-08-30T18:47:05.795Z,25.50
2022-08-30T18:49:34.640Z,25.50
2022-08-30T18:52:03.832Z,25.50
2022-08-30T18:54:31.094Z,25.60
2022-08-30T18:56:58.179Z,25.60
2022-08-30T18:59:35.364Z,25.70
2022-08-30T19:02:15.433Z,25.70
2022-08-30T19:04:45.177Z,25.70
2022-08-30T19:07:14.874Z,25.80
2022-08-30T19:09:43.192Z,25.80
2022-08-30T19:12:11.452Z,25.80
2022-08-30T19:14:39.379Z,25.80
2022-08-30T19:17:07.613Z,25.90
2022-08-30T19:19:46.493Z,25.90
2022-08-30T19:22:16.358Z,25.80
2022-08-30T19:24:43.577Z,25.60
2022-08-30T19:27:11.190Z,25.50
2022-08-30T19:29:39.230Z,25.50
2022-08-30T19:32:06.443Z,25.50
2022-08-30T19:34:33.535Z,25.50
2022-08-30T19:37:02.411Z,25.50
2022-08-30T19:39:29.944Z,25.60
2022-08-30T19:41:58.262Z,25.60
2022-08-30T19:44:30.860Z,25.60
2022-08-30T19:46:59.628Z,25.60
2022-08-30T19:49:26.619Z,25.60
2022-08-30T19:51:53.745Z,25.60
2022-08-30T19:54:22.395Z,25.60
2022-08-30T19:56:49.886Z,25.60
2022-08-30T19:59:18.470Z,25.50
2022-08-30T20:01:46.132Z,25.50
2022-08-30T20:04:13.591Z,25.50
2022-08-30T20:06:42.000Z,25.40
2022-08-30T20:09:10.441Z,25.30
2022-08-30T20:11:38.950Z,25.30
2022-08-30T20:14:07.200Z,25.20
2022-08-30T20:16:37.724Z,25.20
2022-08-30T20:19:07.685Z,25.20
2022-08-30T20:21:35.597Z,25.20
2022-08-30T20:24:03.985Z,25.20
2022-08-30T20:26:34.442Z,25.30
2022-08-30T20:29:03.300Z,25.30
2022-08-30T20:31:30.566Z,25.30
2022-08-30T20:33:57.943Z,25.20
2022-08-30T20:36:24.956Z,25.20
2022-08-30T20:38:52.048Z,25.20
2022-08-30T20:41:19.192Z,25.30
2022-08-30T20:43:48.396Z,25.30
2022-08-30T20:46:19.414Z,25.30
2022-08-30T20:48:50.152Z,25.30
2022-08-30T20:51:19.996Z,25.30
2022-08-30T20:53:47.200Z,25.30
2022-08-30T20:56:17.618Z,25.20
2022-08-30T20:58:45.175Z,25.20
2022-08-30T21:01:14.095Z,25.10
2022-08-30T21:03:42.328Z,25.00
2022-08-30T21:06:11.650Z,25.10
2022-08-30T21:08:39.827Z,25.10
2022-08-30T21:11:06.948Z,25.10
2022-08-30T21:13:33.940Z,25.10
2022-08-30T21:16:03.621Z,25.10
2022-08-30T21:18:33.038Z,25.20
2022-08-30T21:21:07.808Z,25.20
2022-08-30T21:23:35.960Z,25.10
2022-08-30T21:26:10.127Z,25.10
2022-08-30T21:28:37.218Z,25.10
2022-08-30T21:31:05.356Z,25.10
2022-08-30T21:33:32.390Z,25.10
2022-08-30T21:36:32.253Z,25.10
2022-08-30T21:39:00.777Z,25.10
2022-08-30T21:41:29.341Z,25.00
2022-08-30T21:44:01.843Z,25.00
2022-08-30T21:46:30.443Z,24.90
2022-08-30T21:49:01.051Z,24.90
2022-08-30T21:51:32.156Z,24.80
2022-08-30T21:53:59.512Z,24.80
2022-08-30T21:56:26.514Z,24.70
2022-08-30T21:58:54.684Z,24.70
2022-08-30T22:01:24.904Z,24.60
2022-08-30T22:03:53.987Z,24.60
2022-08-30T22:06:21.767Z,24.60
2022-08-30T22:08:52.493Z,24.60
2022-08-30T22:11:23.208Z,24.50
2022-08-30T22:13:51.716Z,24.50
2022-08-30T22:16:21.020Z,24.50
2022-08-30T22:18:49.042Z,24.40
2022-08-30T22:21:19.737Z,24.40
2022-08-30T22:23:46.985Z,24.40
2022-08-30T22:26:16.134Z,24.40
2022-08-30T22:28:43.370Z,24.30
2022-08-30T22:31:12.827Z,24.30
2022-08-30T22:33:40.528Z,24.30
2022-08-30T22:36:16.987Z,24.20
2022-08-30T22:38:44.488Z,24.20
2022-08-30T22:41:15.053Z,24.20
2022-08-30T22:43:42.093Z,24.20
2022-08-30T22:46:11.328Z,24.20
2022-08-30T22:48:41.143Z,24.20
2022-08-30T22:51:08.522Z,24.20
2022-08-30T22:53:36.020Z,24.20
2022-08-30T22:56:11.062Z,24.20
2022-08-30T22:58:38.382Z,24.20
2022-08-30T23:01:05.864Z,24.20
2022-08-30T23:03:35.288Z,24.20
2022-08-30T23:06:02.776Z,24.10
2022-08-30T23:08:29.793Z,24.20
2022-08-30T23:10:57.978Z,24.10
2022-08-30T23:13:25.060Z,24.20
2022-08-30T23:15:52.058Z,24.10
2022-08-30T23:18:19.029Z,24.20
2022-08-30T23:20:45.995Z,24.10
2022-08-30T23:23:31.744Z,24.10
2022-08-30T23:26:20.743Z,24.10
2022-08-30T23:29:06.061Z,24.10
2022-08-30T23:31:51.552Z,24.10
2022-08-30T23:34:37.196Z,24.00
2022-08-30T23:37:22.596Z,24.10
2022-08-30T23:40:07.984Z,24.00
2022-08-30T23:42:53.479Z,24.00
2022-08-30T23:45:38.930Z,24.00
2022-08-30T23:48:24.440Z,24.00
2022-08-30T23:51:09.615Z,24.00
2022-08-30T23:53:58.126Z,23.90
2022-08-30T23:56:43.648Z,23.90
2022-08-30T23:59:29.065Z,23.80
